sensor_id;sensor_type;location;lat;lon;timestamp;P1;durP1;ratioP1;P2;durP2;ratioP2
53835;SDS011;39737;43.334;21.936;2023-04-21T00:01:45;2.55;;;1.48;;
53835;SDS011;39737;43.334;21.936;2023-04-21T00:04:32;3.08;;;2.88;;
53835;SDS011;39737;43.334;21.936;2023-04-21T00:07:18;1.10;;;0.93;;
53835;SDS011;39737;43.334;21.936;2023-04-21T00:10:05;2.25;;;2.13;;
53835;SDS011;39737;43.334;21.936;2023-04-21T00:12:52;11.57;;;6.90;;
53835;SDS011;39737;43.334;21.936;2023-04-21T00:15:38;1.30;;;1.20;;
53835;SDS011;39737;43.334;21.936;2023-04-21T00:18:24;3.38;;;2.22;;
53835;SDS011;39737;43.334;21.936;2023-04-21T00:21:12;2.97;;;1.58;;
53835;SDS011;39737;43.334;21.936;2023-04-21T00:23:59;1.65;;;1.55;;
53835;SDS011;39737;43.334;21.936;2023-04-21T00:26:45;5.15;;;2.40;;
53835;SDS011;39737;43.334;21.936;2023-04-21T00:29:32;3.08;;;2.08;;
53835;SDS011;39737;43.334;21.936;2023-04-21T00:32:18;1.35;;;1.25;;
53835;SDS011;39737;43.334;21.936;2023-04-21T00:35:05;2.40;;;2.17;;
53835;SDS011;39737;43.334;21.936;2023-04-21T00:37:51;1.35;;;1.25;;
53835;SDS011;39737;43.334;21.936;2023-04-21T00:40:37;1.25;;;1.25;;
53835;SDS011;39737;43.334;21.936;2023-04-21T00:43:24;1.65;;;1.30;;
53835;SDS011;39737;43.334;21.936;2023-04-21T00:46:12;1.98;;;1.88;;
53835;SDS011;39737;43.334;21.936;2023-04-21T00:48:58;0.95;;;0.88;;
53835;SDS011;39737;43.334;21.936;2023-04-21T00:51:45;0.88;;;0.88;;
53835;SDS011;39737;43.334;21.936;2023-04-21T00:54:36;5.68;;;3.15;;
53835;SDS011;39737;43.334;21.936;2023-04-21T00:57:22;1.23;;;1.15;;
53835;SDS011;39737;43.334;21.936;2023-04-21T01:00:09;1.67;;;1.58;;
53835;SDS011;39737;43.334;21.936;2023-04-21T01:02:55;1.40;;;1.30;;
53835;SDS011;39737;43.334;21.936;2023-04-21T01:05:42;4.25;;;2.35;;
53835;SDS011;39737;43.334;21.936;2023-04-21T01:08:29;2.35;;;2.20;;
53835;SDS011;39737;43.334;21.936;2023-04-21T01:11:15;3.13;;;2.90;;
53835;SDS011;39737;43.334;21.936;2023-04-21T01:14:02;1.45;;;1.35;;
53835;SDS011;39737;43.334;21.936;2023-04-21T01:16:48;1.33;;;1.23;;
53835;SDS011;39737;43.334;21.936;2023-04-21T01:19:39;1.90;;;1.77;;
53835;SDS011;39737;43.334;21.936;2023-04-21T01:22:26;1.20;;;1.08;;
53835;SDS011;39737;43.334;21.936;2023-04-21T01:25:13;2.17;;;1.95;;
53835;SDS011;39737;43.334;21.936;2023-04-21T01:27:59;1.65;;;1.45;;
53835;SDS011;39737;43.334;21.936;2023-04-21T01:30:45;3.13;;;1.85;;
53835;SDS011;39737;43.334;21.936;2023-04-21T01:33:32;2.80;;;2.45;;
53835;SDS011;39737;43.334;21.936;2023-04-21T01:36:18;1.58;;;1.48;;
53835;SDS011;39737;43.334;21.936;2023-04-21T01:39:04;14.73;;;7.32;;
53835;SDS011;39737;43.334;21.936;2023-04-21T01:41:51;4.03;;;2.40;;
53835;SDS011;39737;43.334;21.936;2023-04-21T01:44:38;19.08;;;9.10;;
53835;SDS011;39737;43.334;21.936;2023-04-21T01:47:24;2.33;;;2.13;;
53835;SDS011;39737;43.334;21.936;2023-04-21T01:50:11;13.48;;;7.85;;
53835;SDS011;39737;43.334;21.936;2023-04-21T01:52:59;2.13;;;1.92;;
53835;SDS011;39737;43.334;21.936;2023-04-21T01:55:46;3.42;;;1.27;;
53835;SDS011;39737;43.334;21.936;2023-04-21T01:58:32;1.23;;;1.13;;
53835;SDS011;39737;43.334;21.936;2023-04-21T02:01:18;5.35;;;2.53;;
53835;SDS011;39737;43.334;21.936;2023-04-21T02:04:04;3.35;;;2.05;;
53835;SDS011;39737;43.334;21.936;2023-04-21T02:06:50;1.83;;;1.70;;
53835;SDS011;39737;43.334;21.936;2023-04-21T02:09:37;1.15;;;1.15;;
53835;SDS011;39737;43.334;21.936;2023-04-21T02:12:23;0.80;;;0.80;;
53835;SDS011;39737;43.334;21.936;2023-04-21T02:15:11;2.83;;;1.98;;
53835;SDS011;39737;43.334;21.936;2023-04-21T02:17:58;1.35;;;1.13;;
53835;SDS011;39737;43.334;21.936;2023-04-21T02:20:44;1.95;;;1.35;;
53835;SDS011;39737;43.334;21.936;2023-04-21T02:23:31;1.15;;;1.15;;
53835;SDS011;39737;43.334;21.936;2023-04-21T02:26:18;0.88;;;0.85;;
53835;SDS011;39737;43.334;21.936;2023-04-21T02:29:04;5.55;;;1.65;;
53835;SDS011;39737;43.334;21.936;2023-04-21T02:31:50;1.15;;;0.80;;
53835;SDS011;39737;43.334;21.936;2023-04-21T02:34:55;7.00;;;3.90;;
53835;SDS011;39737;43.334;21.936;2023-04-21T02:37:41;1.42;;;1.33;;
53835;SDS011;39737;43.334;21.936;2023-04-21T02:40:28;1.35;;;1.25;;
53835;SDS011;39737;43.334;21.936;2023-04-21T02:43:14;2.38;;;0.93;;
53835;SDS011;39737;43.334;21.936;2023-04-21T02:46:09;5.03;;;2.63;;
53835;SDS011;39737;43.334;21.936;2023-04-21T02:48:55;9.27;;;4.28;;
53835;SDS011;39737;43.334;21.936;2023-04-21T02:51:41;4.32;;;3.92;;
53835;SDS011;39737;43.334;21.936;2023-04-21T02:54:28;1.95;;;1.63;;
53835;SDS011;39737;43.334;21.936;2023-04-21T02:57:14;1.73;;;1.48;;
53835;SDS011;39737;43.334;21.936;2023-04-21T03:00:00;1.60;;;1.50;;
53835;SDS011;39737;43.334;21.936;2023-04-21T03:02:51;3.40;;;3.10;;
53835;SDS011;39737;43.334;21.936;2023-04-21T03:05:38;1.30;;;1.20;;
53835;SDS011;39737;43.334;21.936;2023-04-21T03:08:24;2.58;;;2.35;;
53835;SDS011;39737;43.334;21.936;2023-04-21T03:11:11;3.42;;;2.42;;
53835;SDS011;39737;43.334;21.936;2023-04-21T03:14:15;2.30;;;2.20;;
53835;SDS011;39737;43.334;21.936;2023-04-21T03:17:02;2.67;;;2.42;;
53835;SDS011;39737;43.334;21.936;2023-04-21T03:19:49;1.13;;;1.02;;
53835;SDS011;39737;43.334;21.936;2023-04-21T03:22:36;0.70;;;0.70;;
53835;SDS011;39737;43.334;21.936;2023-04-21T03:25:23;7.22;;;5.53;;
53835;SDS011;39737;43.334;21.936;2023-04-21T03:28:09;0.95;;;0.95;;
53835;SDS011;39737;43.334;21.936;2023-04-21T03:30:56;1.67;;;1.55;;
53835;SDS011;39737;43.334;21.936;2023-04-21T03:33:42;1.25;;;0.88;;
53835;SDS011;39737;43.334;21.936;2023-04-21T03:36:28;1.50;;;1.35;;
53835;SDS011;39737;43.334;21.936;2023-04-21T03:39:14;3.30;;;2.58;;
53835;SDS011;39737;43.334;21.936;2023-04-21T03:42:06;10.57;;;1.65;;
53835;SDS011;39737;43.334;21.936;2023-04-21T03:44:52;1.83;;;1.73;;
53835;SDS011;39737;43.334;21.936;2023-04-21T03:47:38;4.40;;;1.73;;
53835;SDS011;39737;43.334;21.936;2023-04-21T03:50:24;2.28;;;2.15;;
53835;SDS011;39737;43.334;21.936;2023-04-21T03:53:11;1.83;;;1.73;;
53835;SDS011;39737;43.334;21.936;2023-04-21T03:55:57;1.05;;;1.05;;
53835;SDS011;39737;43.334;21.936;2023-04-21T03:58:43;1.33;;;1.30;;
53835;SDS011;39737;43.334;21.936;2023-04-21T04:01:29;5.10;;;2.85;;
53835;SDS011;39737;43.334;21.936;2023-04-21T04:04:15;1.58;;;1.48;;
53835;SDS011;39737;43.334;21.936;2023-04-21T04:07:02;1.38;;;1.33;;
53835;SDS011;39737;43.334;21.936;2023-04-21T04:09:48;25.00;;;12.73;;
53835;SDS011;39737;43.334;21.936;2023-04-21T04:12:34;3.53;;;3.22;;
53835;SDS011;39737;43.334;21.936;2023-04-21T04:15:20;1.58;;;1.48;;
53835;SDS011;39737;43.334;21.936;2023-04-21T04:18:06;4.50;;;4.15;;
53835;SDS011;39737;43.334;21.936;2023-04-21T04:20:53;2.05;;;1.95;;
53835;SDS011;39737;43.334;21.936;2023-04-21T04:23:39;37.03;;;6.13;;
53835;SDS011;39737;43.334;21.936;2023-04-21T04:26:25;2.20;;;2.10;;
53835;SDS011;39737;43.334;21.936;2023-04-21T04:29:12;2.65;;;1.02;;
53835;SDS011;39737;43.334;21.936;2023-04-21T04:31:58;1.20;;;0.93;;
53835;SDS011;39737;43.334;21.936;2023-04-21T04:34:47;2.25;;;1.75;;
53835;SDS011;39737;43.334;21.936;2023-04-21T04:37:37;14.23;;;8.57;;
53835;SDS011;39737;43.334;21.936;2023-04-21T04:40:43;6.03;;;3.30;;
53835;SDS011;39737;43.334;21.936;2023-04-21T04:43:29;2.00;;;1.85;;
53835;SDS011;39737;43.334;21.936;2023-04-21T04:46:18;0.70;;;0.70;;
53835;SDS011;39737;43.334;21.936;2023-04-21T04:49:05;2.15;;;1.58;;
53835;SDS011;39737;43.334;21.936;2023-04-21T04:51:51;5.20;;;2.20;;
53835;SDS011;39737;43.334;21.936;2023-04-21T04:54:37;1.42;;;1.33;;
53835;SDS011;39737;43.334;21.936;2023-04-21T04:57:23;2.22;;;1.67;;
53835;SDS011;39737;43.334;21.936;2023-04-21T05:00:10;2.78;;;2.58;;
53835;SDS011;39737;43.334;21.936;2023-04-21T05:03:15;3.08;;;2.78;;
53835;SDS011;39737;43.334;21.936;2023-04-21T05:06:02;12.95;;;5.82;;
53835;SDS011;39737;43.334;21.936;2023-04-21T05:08:48;1.58;;;1.48;;
53835;SDS011;39737;43.334;21.936;2023-04-21T05:11:34;15.65;;;8.93;;
53835;SDS011;39737;43.334;21.936;2023-04-21T05:14:20;1.52;;;1.42;;
53835;SDS011;39737;43.334;21.936;2023-04-21T05:17:07;2.35;;;1.88;;
53835;SDS011;39737;43.334;21.936;2023-04-21T05:19:53;5.38;;;2.67;;
53835;SDS011;39737;43.334;21.936;2023-04-21T05:22:39;2.90;;;2.22;;
53835;SDS011;39737;43.334;21.936;2023-04-21T05:25:26;3.10;;;1.85;;
53835;SDS011;39737;43.334;21.936;2023-04-21T05:28:12;2.65;;;2.45;;
53835;SDS011;39737;43.334;21.936;2023-04-21T05:30:59;3.90;;;2.20;;
53835;SDS011;39737;43.334;21.936;2023-04-21T05:33:45;2.80;;;2.60;;
53835;SDS011;39737;43.334;21.936;2023-04-21T05:36:31;5.57;;;2.70;;
53835;SDS011;39737;43.334;21.936;2023-04-21T05:39:18;1.58;;;1.48;;
53835;SDS011;39737;43.334;21.936;2023-04-21T05:42:04;30.75;;;13.35;;
53835;SDS011;39737;43.334;21.936;2023-04-21T05:44:50;4.85;;;3.33;;
53835;SDS011;39737;43.334;21.936;2023-04-21T05:47:36;20.95;;;11.45;;
53835;SDS011;39737;43.334;21.936;2023-04-21T05:50:23;17.38;;;11.15;;
53835;SDS011;39737;43.334;21.936;2023-04-21T05:53:12;4.32;;;2.15;;
53835;SDS011;39737;43.334;21.936;2023-04-21T05:55:59;8.63;;;5.10;;
53835;SDS011;39737;43.334;21.936;2023-04-21T05:58:45;3.40;;;2.92;;
53835;SDS011;39737;43.334;21.936;2023-04-21T06:01:31;17.02;;;9.68;;
53835;SDS011;39737;43.334;21.936;2023-04-21T06:04:18;1.75;;;1.45;;
53835;SDS011;39737;43.334;21.936;2023-04-21T06:07:07;4.15;;;2.60;;
53835;SDS011;39737;43.334;21.936;2023-04-21T06:09:55;2.70;;;2.50;;
53835;SDS011;39737;43.334;21.936;2023-04-21T06:12:42;2.83;;;2.28;;
53835;SDS011;39737;43.334;21.936;2023-04-21T06:15:28;8.07;;;2.25;;
53835;SDS011;39737;43.334;21.936;2023-04-21T06:18:14;26.58;;;11.27;;
53835;SDS011;39737;43.334;21.936;2023-04-21T06:21:01;30.90;;;11.32;;
53835;SDS011;39737;43.334;21.936;2023-04-21T06:23:48;3.65;;;2.88;;
53835;SDS011;39737;43.334;21.936;2023-04-21T06:26:34;26.98;;;11.95;;
53835;SDS011;39737;43.334;21.936;2023-04-21T06:29:20;25.27;;;11.05;;
53835;SDS011;39737;43.334;21.936;2023-04-21T06:32:06;18.70;;;10.23;;
53835;SDS011;39737;43.334;21.936;2023-04-21T06:34:52;3.40;;;2.60;;
53835;SDS011;39737;43.334;21.936;2023-04-21T06:37:38;3.78;;;3.42;;
53835;SDS011;39737;43.334;21.936;2023-04-21T06:40:25;19.70;;;11.70;;
53835;SDS011;39737;43.334;21.936;2023-04-21T06:43:11;17.17;;;4.13;;
53835;SDS011;39737;43.334;21.936;2023-04-21T06:45:57;5.25;;;2.80;;
53835;SDS011;39737;43.334;21.936;2023-04-21T06:48:43;20.15;;;9.75;;
53835;SDS011;39737;43.334;21.936;2023-04-21T06:51:30;21.83;;;9.90;;
53835;SDS011;39737;43.334;21.936;2023-04-21T06:54:16;2.75;;;2.05;;
53835;SDS011;39737;43.334;21.936;2023-04-21T06:57:03;12.45;;;7.40;;
53835;SDS011;39737;43.334;21.936;2023-04-21T06:59:49;13.07;;;8.77;;
53835;SDS011;39737;43.334;21.936;2023-04-21T07:02:38;18.08;;;8.98;;
53835;SDS011;39737;43.334;21.936;2023-04-21T07:05:26;23.50;;;11.75;;
53835;SDS011;39737;43.334;21.936;2023-04-21T07:08:12;24.70;;;11.25;;
53835;SDS011;39737;43.334;21.936;2023-04-21T07:10:58;28.05;;;12.68;;
53835;SDS011;39737;43.334;21.936;2023-04-21T07:13:44;34.67;;;16.25;;
53835;SDS011;39737;43.334;21.936;2023-04-21T07:16:31;23.80;;;11.43;;
53835;SDS011;39737;43.334;21.936;2023-04-21T07:19:17;19.58;;;10.43;;
53835;SDS011;39737;43.334;21.936;2023-04-21T07:22:06;22.85;;;11.90;;
53835;SDS011;39737;43.334;21.936;2023-04-21T07:24:55;14.75;;;10.60;;
53835;SDS011;39737;43.334;21.936;2023-04-21T07:27:42;24.63;;;9.80;;
53835;SDS011;39737;43.334;21.936;2023-04-21T07:30:47;18.63;;;10.70;;
53835;SDS011;39737;43.334;21.936;2023-04-21T07:33:34;19.83;;;11.10;;
53835;SDS011;39737;43.334;21.936;2023-04-21T07:36:20;17.30;;;8.27;;
53835;SDS011;39737;43.334;21.936;2023-04-21T07:39:06;14.40;;;8.10;;
53835;SDS011;39737;43.334;21.936;2023-04-21T07:41:53;14.20;;;7.97;;
53835;SDS011;39737;43.334;21.936;2023-04-21T07:44:40;14.70;;;8.45;;
53835;SDS011;39737;43.334;21.936;2023-04-21T07:47:29;11.88;;;7.95;;
53835;SDS011;39737;43.334;21.936;2023-04-21T07:50:16;17.15;;;7.38;;
53835;SDS011;39737;43.334;21.936;2023-04-21T07:53:03;13.13;;;8.18;;
53835;SDS011;39737;43.334;21.936;2023-04-21T07:55:49;18.33;;;8.15;;
53835;SDS011;39737;43.334;21.936;2023-04-21T07:58:36;18.30;;;8.60;;
53835;SDS011;39737;43.334;21.936;2023-04-21T08:01:23;12.88;;;7.57;;
53835;SDS011;39737;43.334;21.936;2023-04-21T08:04:11;22.40;;;9.15;;
53835;SDS011;39737;43.334;21.936;2023-04-21T08:06:57;12.77;;;7.43;;
53835;SDS011;39737;43.334;21.936;2023-04-21T08:09:43;17.55;;;8.57;;
53835;SDS011;39737;43.334;21.936;2023-04-21T08:12:30;22.98;;;11.07;;
53835;SDS011;39737;43.334;21.936;2023-04-21T08:15:16;11.40;;;7.50;;
53835;SDS011;39737;43.334;21.936;2023-04-21T08:18:03;18.80;;;9.93;;
53835;SDS011;39737;43.334;21.936;2023-04-21T08:20:49;19.05;;;8.02;;
53835;SDS011;39737;43.334;21.936;2023-04-21T08:23:37;21.17;;;9.70;;
53835;SDS011;39737;43.334;21.936;2023-04-21T08:26:23;27.08;;;9.70;;
53835;SDS011;39737;43.334;21.936;2023-04-21T08:29:10;16.13;;;8.35;;
53835;SDS011;39737;43.334;21.936;2023-04-21T08:31:58;18.25;;;9.57;;
53835;SDS011;39737;43.334;21.936;2023-04-21T08:34:44;13.68;;;7.50;;
53835;SDS011;39737;43.334;21.936;2023-04-21T08:37:30;21.85;;;8.55;;
53835;SDS011;39737;43.334;21.936;2023-04-21T08:40:36;23.58;;;11.45;;
53835;SDS011;39737;43.334;21.936;2023-04-21T08:43:27;16.45;;;8.25;;
53835;SDS011;39737;43.334;21.936;2023-04-21T08:46:13;15.15;;;8.80;;
53835;SDS011;39737;43.334;21.936;2023-04-21T08:49:01;17.40;;;8.90;;
53835;SDS011;39737;43.334;21.936;2023-04-21T08:51:47;10.18;;;7.18;;
53835;SDS011;39737;43.334;21.936;2023-04-21T08:54:33;11.07;;;6.93;;
53835;SDS011;39737;43.334;21.936;2023-04-21T08:57:21;11.13;;;6.43;;
53835;SDS011;39737;43.334;21.936;2023-04-21T09:00:07;13.88;;;7.25;;
53835;SDS011;39737;43.334;21.936;2023-04-21T09:02:55;13.60;;;6.70;;
53835;SDS011;39737;43.334;21.936;2023-04-21T09:05:55;20.40;;;10.10;;
53835;SDS011;39737;43.334;21.936;2023-04-21T09:08:52;20.48;;;9.10;;
53835;SDS011;39737;43.334;21.936;2023-04-21T09:11:57;13.00;;;7.45;;
53835;SDS011;39737;43.334;21.936;2023-04-21T09:14:44;11.75;;;7.95;;
53835;SDS011;39737;43.334;21.936;2023-04-21T09:17:31;15.82;;;7.90;;
53835;SDS011;39737;43.334;21.936;2023-04-21T09:20:19;12.85;;;5.75;;
53835;SDS011;39737;43.334;21.936;2023-04-21T09:53:15;5.07;;;3.70;;
53835;SDS011;39737;43.334;21.936;2023-04-21T09:56:02;7.40;;;3.17;;
53835;SDS011;39737;43.334;21.936;2023-04-21T09:58:52;6.20;;;2.63;;
53835;SDS011;39737;43.334;21.936;2023-04-21T10:01:42;6.30;;;2.80;;
53835;SDS011;39737;43.334;21.936;2023-04-21T10:04:30;4.05;;;2.67;;
53835;SDS011;39737;43.334;21.936;2023-04-21T10:07:18;6.18;;;2.70;;
53835;SDS011;39737;43.334;21.936;2023-04-21T10:10:21;15.65;;;3.28;;
53835;SDS011;39737;43.334;21.936;2023-04-21T10:13:13;7.57;;;3.20;;
53835;SDS011;39737;43.334;21.936;2023-04-21T10:16:09;6.13;;;3.05;;
53835;SDS011;39737;43.334;21.936;2023-04-21T10:18:56;7.43;;;3.38;;
53835;SDS011;39737;43.334;21.936;2023-04-21T10:21:42;5.72;;;3.08;;
53835;SDS011;39737;43.334;21.936;2023-04-21T10:24:29;9.50;;;3.90;;
53835;SDS011;39737;43.334;21.936;2023-04-21T10:27:29;12.02;;;4.28;;
53835;SDS011;39737;43.334;21.936;2023-04-21T10:30:22;5.28;;;3.25;;
53835;SDS011;39737;43.334;21.936;2023-04-21T10:33:08;9.68;;;3.55;;
53835;SDS011;39737;43.334;21.936;2023-04-21T10:36:00;5.97;;;2.50;;
53835;SDS011;39737;43.334;21.936;2023-04-21T10:40:04;7.30;;;3.45;;
53835;SDS011;39737;43.334;21.936;2023-04-21T10:45:42;14.85;;;3.30;;
53835;SDS011;39737;43.334;21.936;2023-04-21T10:48:30;11.63;;;2.83;;
53835;SDS011;39737;43.334;21.936;2023-04-21T10:51:21;11.50;;;2.88;;
53835;SDS011;39737;43.334;21.936;2023-04-21T10:54:07;7.82;;;2.72;;
53835;SDS011;39737;43.334;21.936;2023-04-21T10:56:58;10.63;;;3.63;;
53835;SDS011;39737;43.334;21.936;2023-04-21T10:59:45;6.18;;;2.70;;
53835;SDS011;39737;43.334;21.936;2023-04-21T11:02:32;9.68;;;3.85;;
53835;SDS011;39737;43.334;21.936;2023-04-21T11:05:38;10.30;;;4.75;;
53835;SDS011;39737;43.334;21.936;2023-04-21T11:08:25;11.43;;;3.42;;
53835;SDS011;39737;43.334;21.936;2023-04-21T11:11:11;5.95;;;3.20;;
53835;SDS011;39737;43.334;21.936;2023-04-21T11:14:06;6.35;;;3.00;;
53835;SDS011;39737;43.334;21.936;2023-04-21T11:16:52;6.90;;;2.28;;
53835;SDS011;39737;43.334;21.936;2023-04-21T11:19:38;11.05;;;2.97;;
53835;SDS011;39737;43.334;21.936;2023-04-21T11:22:25;3.97;;;2.03;;
53835;SDS011;39737;43.334;21.936;2023-04-21T11:25:15;7.95;;;3.72;;
53835;SDS011;39737;43.334;21.936;2023-04-21T11:28:02;12.73;;;3.53;;
53835;SDS011;39737;43.334;21.936;2023-04-21T11:30:49;5.25;;;3.20;;
53835;SDS011;39737;43.334;21.936;2023-04-21T11:33:38;5.45;;;3.30;;
53835;SDS011;39737;43.334;21.936;2023-04-21T11:36:25;10.13;;;3.30;;
53835;SDS011;39737;43.334;21.936;2023-04-21T11:39:12;4.88;;;2.40;;
53835;SDS011;39737;43.334;21.936;2023-04-21T11:42:00;9.82;;;3.03;;
53835;SDS011;39737;43.334;21.936;2023-04-21T11:44:47;9.55;;;4.82;;
53835;SDS011;39737;43.334;21.936;2023-04-21T11:47:33;7.68;;;3.45;;
53835;SDS011;39737;43.334;21.936;2023-04-21T11:50:29;10.52;;;3.80;;
53835;SDS011;39737;43.334;21.936;2023-04-21T11:53:17;15.55;;;3.72;;
53835;SDS011;39737;43.334;21.936;2023-04-21T11:56:03;10.30;;;3.55;;
53835;SDS011;39737;43.334;21.936;2023-04-21T11:58:49;4.03;;;2.60;;
53835;SDS011;39737;43.334;21.936;2023-04-21T12:07:25;13.52;;;3.17;;
53835;SDS011;39737;43.334;21.936;2023-04-21T12:10:13;6.05;;;3.20;;
53835;SDS011;39737;43.334;21.936;2023-04-21T12:13:00;5.07;;;2.92;;
53835;SDS011;39737;43.334;21.936;2023-04-21T12:15:46;10.10;;;3.47;;
53835;SDS011;39737;43.334;21.936;2023-04-21T12:18:34;6.53;;;3.33;;
53835;SDS011;39737;43.334;21.936;2023-04-21T12:21:25;6.03;;;2.53;;
53835;SDS011;39737;43.334;21.936;2023-04-21T12:24:13;8.88;;;2.88;;
53835;SDS011;39737;43.334;21.936;2023-04-21T12:27:00;6.75;;;3.22;;
53835;SDS011;39737;43.334;21.936;2023-04-21T12:29:47;6.38;;;2.42;;
53835;SDS011;39737;43.334;21.936;2023-04-21T12:32:33;5.13;;;2.92;;
53835;SDS011;39737;43.334;21.936;2023-04-21T12:35:20;3.80;;;2.80;;
53835;SDS011;39737;43.334;21.936;2023-04-21T12:38:06;8.65;;;2.70;;
53835;SDS011;39737;43.334;21.936;2023-04-21T12:40:53;6.95;;;3.42;;
53835;SDS011;39737;43.334;21.936;2023-04-21T12:43:40;15.93;;;2.95;;
53835;SDS011;39737;43.334;21.936;2023-04-21T12:46:35;7.13;;;2.78;;
53835;SDS011;39737;43.334;21.936;2023-04-21T12:49:22;5.28;;;2.50;;
53835;SDS011;39737;43.334;21.936;2023-04-21T12:52:07;8.52;;;2.33;;
53835;SDS011;39737;43.334;21.936;2023-04-21T12:54:54;10.18;;;2.92;;
53835;SDS011;39737;43.334;21.936;2023-04-21T12:57:40;8.70;;;3.08;;
53835;SDS011;39737;43.334;21.936;2023-04-21T13:00:27;7.85;;;3.00;;
53835;SDS011;39737;43.334;21.936;2023-04-21T13:03:13;3.25;;;2.70;;
53835;SDS011;39737;43.334;21.936;2023-04-21T13:05:59;6.95;;;2.22;;
53835;SDS011;39737;43.334;21.936;2023-04-21T13:08:46;2.25;;;1.90;;
53835;SDS011;39737;43.334;21.936;2023-04-21T13:11:32;9.48;;;2.03;;
53835;SDS011;39737;43.334;21.936;2023-04-21T13:14:18;12.60;;;2.72;;
53835;SDS011;39737;43.334;21.936;2023-04-21T13:17:04;7.10;;;3.30;;
53835;SDS011;39737;43.334;21.936;2023-04-21T13:19:51;8.45;;;2.60;;
53835;SDS011;39737;43.334;21.936;2023-04-21T13:22:37;5.32;;;2.55;;
53835;SDS011;39737;43.334;21.936;2023-04-21T13:25:23;4.35;;;2.20;;
53835;SDS011;39737;43.334;21.936;2023-04-21T13:28:28;12.20;;;2.40;;
53835;SDS011;39737;43.334;21.936;2023-04-21T13:31:14;7.85;;;2.72;;
53835;SDS011;39737;43.334;21.936;2023-04-21T13:34:01;5.82;;;2.33;;
53835;SDS011;39737;43.334;21.936;2023-04-21T13:36:47;5.07;;;2.65;;
53835;SDS011;39737;43.334;21.936;2023-04-21T13:39:34;7.50;;;2.17;;
53835;SDS011;39737;43.334;21.936;2023-04-21T13:42:20;4.63;;;1.98;;
53835;SDS011;39737;43.334;21.936;2023-04-21T13:45:06;3.58;;;2.25;;
53835;SDS011;39737;43.334;21.936;2023-04-21T13:47:53;7.32;;;2.70;;
53835;SDS011;39737;43.334;21.936;2023-04-21T13:50:39;7.60;;;2.72;;
53835;SDS011;39737;43.334;21.936;2023-04-21T13:53:25;11.63;;;3.28;;
53835;SDS011;39737;43.334;21.936;2023-04-21T13:56:11;3.55;;;2.35;;
53835;SDS011;39737;43.334;21.936;2023-04-21T13:58:58;4.18;;;2.45;;
53835;SDS011;39737;43.334;21.936;2023-04-21T14:01:45;7.45;;;2.47;;
53835;SDS011;39737;43.334;21.936;2023-04-21T14:04:31;3.78;;;2.67;;
53835;SDS011;39737;43.334;21.936;2023-04-21T14:07:18;5.93;;;2.22;;
53835;SDS011;39737;43.334;21.936;2023-04-21T14:10:04;3.90;;;2.13;;
53835;SDS011;39737;43.334;21.936;2023-04-21T14:12:52;4.22;;;1.90;;
53835;SDS011;39737;43.334;21.936;2023-04-21T14:15:38;7.10;;;2.25;;
53835;SDS011;39737;43.334;21.936;2023-04-21T14:18:24;12.32;;;3.00;;
53835;SDS011;39737;43.334;21.936;2023-04-21T14:21:10;10.93;;;2.78;;
53835;SDS011;39737;43.334;21.936;2023-04-21T14:23:57;3.85;;;1.80;;
53835;SDS011;39737;43.334;21.936;2023-04-21T14:26:44;4.97;;;2.33;;
53835;SDS011;39737;43.334;21.936;2023-04-21T14:29:30;6.88;;;2.40;;
53835;SDS011;39737;43.334;21.936;2023-04-21T14:32:17;11.90;;;2.25;;
53835;SDS011;39737;43.334;21.936;2023-04-21T14:35:05;10.60;;;3.05;;
53835;SDS011;39737;43.334;21.936;2023-04-21T14:37:51;5.20;;;2.17;;
53835;SDS011;39737;43.334;21.936;2023-04-21T14:40:40;4.57;;;2.25;;
53835;SDS011;39737;43.334;21.936;2023-04-21T14:43:27;4.75;;;2.20;;
53835;SDS011;39737;43.334;21.936;2023-04-21T14:46:13;7.25;;;2.30;;
53835;SDS011;39737;43.334;21.936;2023-04-21T14:48:59;5.70;;;2.25;;
53835;SDS011;39737;43.334;21.936;2023-04-21T14:51:46;7.93;;;2.40;;
53835;SDS011;39737;43.334;21.936;2023-04-21T14:54:34;4.75;;;1.92;;
53835;SDS011;39737;43.334;21.936;2023-04-21T14:57:20;10.40;;;2.45;;
53835;SDS011;39737;43.334;21.936;2023-04-21T15:00:07;6.63;;;2.30;;
53835;SDS011;39737;43.334;21.936;2023-04-21T15:02:54;4.38;;;2.35;;
53835;SDS011;39737;43.334;21.936;2023-04-21T15:05:43;8.55;;;2.33;;
53835;SDS011;39737;43.334;21.936;2023-04-21T15:08:29;5.25;;;2.50;;
53835;SDS011;39737;43.334;21.936;2023-04-21T15:11:15;7.28;;;2.38;;
53835;SDS011;39737;43.334;21.936;2023-04-21T15:14:20;6.15;;;2.03;;
53835;SDS011;39737;43.334;21.936;2023-04-21T15:17:07;9.80;;;2.55;;
53835;SDS011;39737;43.334;21.936;2023-04-21T15:19:53;4.55;;;2.50;;
53835;SDS011;39737;43.334;21.936;2023-04-21T15:22:39;3.97;;;2.45;;
53835;SDS011;39737;43.334;21.936;2023-04-21T15:25:26;3.83;;;2.10;;
53835;SDS011;39737;43.334;21.936;2023-04-21T15:28:12;13.93;;;2.58;;
53835;SDS011;39737;43.334;21.936;2023-04-21T15:30:58;4.20;;;2.33;;
53835;SDS011;39737;43.334;21.936;2023-04-21T15:33:45;6.72;;;3.33;;
53835;SDS011;39737;43.334;21.936;2023-04-21T15:36:31;7.70;;;2.22;;
53835;SDS011;39737;43.334;21.936;2023-04-21T15:39:17;5.28;;;2.15;;
53835;SDS011;39737;43.334;21.936;2023-04-21T15:42:03;5.93;;;2.60;;
53835;SDS011;39737;43.334;21.936;2023-04-21T15:44:50;10.15;;;2.47;;
53835;SDS011;39737;43.334;21.936;2023-04-21T15:47:37;8.15;;;2.40;;
53835;SDS011;39737;43.334;21.936;2023-04-21T15:50:23;4.03;;;2.08;;
53835;SDS011;39737;43.334;21.936;2023-04-21T15:53:10;7.82;;;3.03;;
53835;SDS011;39737;43.334;21.936;2023-04-21T15:55:56;6.72;;;2.53;;
53835;SDS011;39737;43.334;21.936;2023-04-21T15:58:43;7.18;;;2.53;;
53835;SDS011;39737;43.334;21.936;2023-04-21T16:01:29;5.03;;;3.13;;
53835;SDS011;39737;43.334;21.936;2023-04-21T16:04:15;6.43;;;2.35;;
53835;SDS011;39737;43.334;21.936;2023-04-21T16:07:02;6.13;;;3.03;;
53835;SDS011;39737;43.334;21.936;2023-04-21T16:09:48;8.60;;;3.03;;
53835;SDS011;39737;43.334;21.936;2023-04-21T16:12:34;7.32;;;2.83;;
53835;SDS011;39737;43.334;21.936;2023-04-21T16:18:35;7.45;;;2.65;;
53835;SDS011;39737;43.334;21.936;2023-04-21T16:21:21;5.10;;;2.80;;
53835;SDS011;39737;43.334;21.936;2023-04-21T16:24:08;10.02;;;2.78;;
53835;SDS011;39737;43.334;21.936;2023-04-21T16:26:59;3.75;;;2.47;;
53835;SDS011;39737;43.334;21.936;2023-04-21T16:29:49;9.30;;;2.65;;
53835;SDS011;39737;43.334;21.936;2023-04-21T16:32:41;15.27;;;8.30;;
53835;SDS011;39737;43.334;21.936;2023-04-21T16:35:32;9.20;;;3.78;;
53835;SDS011;39737;43.334;21.936;2023-04-21T16:38:20;10.15;;;3.33;;
53835;SDS011;39737;43.334;21.936;2023-04-21T16:41:09;8.43;;;3.65;;
53835;SDS011;39737;43.334;21.936;2023-04-21T16:44:16;14.45;;;3.65;;
53835;SDS011;39737;43.334;21.936;2023-04-21T16:47:12;6.60;;;3.42;;
53835;SDS011;39737;43.334;21.936;2023-04-21T16:50:08;5.18;;;3.40;;
53835;SDS011;39737;43.334;21.936;2023-04-21T16:52:58;13.88;;;6.65;;
53835;SDS011;39737;43.334;21.936;2023-04-21T16:55:44;27.95;;;14.63;;
53835;SDS011;39737;43.334;21.936;2023-04-21T16:58:31;14.85;;;9.13;;
53835;SDS011;39737;43.334;21.936;2023-04-21T17:01:20;14.15;;;4.70;;
53835;SDS011;39737;43.334;21.936;2023-04-21T17:04:20;9.93;;;4.77;;
53835;SDS011;39737;43.334;21.936;2023-04-21T17:07:17;9.10;;;3.55;;
53835;SDS011;39737;43.334;21.936;2023-04-21T17:10:05;7.93;;;3.97;;
53835;SDS011;39737;43.334;21.936;2023-04-21T17:12:50;14.77;;;4.72;;